Time;durP1;ratioP1;P1;durP2;ratioP2;P2;SDS_P1;SDS_P2;PMS_P1;PMS_P2;Temp;Humidity;BMP_temperature;BMP_pressure;BME280_temperature;BME280_humidity;BME280_pressure;Samples;Min_cycle;Max_cycle;Signal;HPM_P1;HPM_P2
2023/05/04 00:01:29;;;;;;;18.63;13.60;;;10.50;30.10;;;;;;5065191;28;20469;-66
2023/05/04 00:03:55;;;;;;;19.40;13.20;;;10.40;30.00;;;;;;5063956;28;20910;-66
2023/05/04 00:06:22;;;;;;;22.10;15.03;;;10.40;30.10;;;;;;5060878;28;20461;-67
2023/05/04 00:08:49;;;;;;;14.33;11.90;;;10.30;30.10;;;;;;5059565;28;20462;-68
2023/05/04 00:11:17;;;;;;;16.00;12.17;;;10.30;30.00;;;;;;5062529;28;21173;-68
2023/05/04 00:13:44;;;;;;;21.60;13.70;;;10.30;30.10;;;;;;5065149;28;21238;-68
2023/05/04 00:16:11;;;;;;;23.33;13.17;;;10.30;30.10;;;;;;5063883;28;20492;-68
2023/05/04 00:18:37;;;;;;;18.57;13.63;;;10.20;30.30;;;;;;5061167;28;20501;-67
2023/05/04 00:21:04;;;;;;;16.90;13.03;;;10.20;30.40;;;;;;5064668;28;20460;-66
2023/05/04 00:23:31;;;;;;;21.87;14.10;;;10.10;30.40;;;;;;5058832;28;20488;-66
2023/05/04 00:25:58;;;;;;;20.00;13.90;;;10.10;30.60;;;;;;5065879;28;20465;-66
2023/05/04 00:28:26;;;;;;;21.53;14.60;;;10.10;30.80;;;;;;5058577;28;20961;-66
2023/05/04 00:30:53;;;;;;;18.10;13.30;;;10.10;31.10;;;;;;5065681;28;20470;-67
2023/05/04 00:33:20;;;;;;;23.07;14.00;;;10.10;30.90;;;;;;5061327;28;20832;-66
2023/05/04 00:35:47;;;;;;;20.27;14.57;;;10.00;30.90;;;;;;5066292;28;20469;-66
2023/05/04 00:38:15;;;;;;;16.13;13.40;;;10.00;31.10;;;;;;5062341;28;20468;-67
2023/05/04 00:40:42;;;;;;;17.97;14.00;;;9.90;31.10;;;;;;5063926;28;20538;-66
2023/05/04 00:43:09;;;;;;;18.37;13.33;;;9.90;31.10;;;;;;5062491;28;20489;-67
2023/05/04 00:45:37;;;;;;;19.30;13.33;;;9.90;31.20;;;;;;5061873;28;20468;-67
2023/05/04 00:48:05;;;;;;;19.57;12.00;;;9.90;31.10;;;;;;5067202;28;20493;-67
2023/05/04 00:50:32;;;;;;;14.50;11.03;;;9.80;31.00;;;;;;5066928;28;20507;-67
2023/05/04 00:53:04;;;;;;;16.50;11.50;;;9.80;31.20;;;;;;5066319;28;20461;-67
2023/05/04 00:55:32;;;;;;;20.13;11.93;;;9.70;31.30;;;;;;5061200;28;20457;-66
2023/05/04 00:57:59;;;;;;;17.00;11.47;;;9.70;31.30;;;;;;5063696;28;20469;-67
2023/05/04 01:00:26;;;;;;;17.43;11.80;;;9.70;31.40;;;;;;5066097;28;20488;-67
2023/05/04 01:02:54;;;;;;;17.23;11.90;;;9.60;31.40;;;;;;5068342;28;20518;-67
2023/05/04 01:05:21;;;;;;;16.10;12.10;;;9.60;31.30;;;;;;5061955;28;20462;-66
2023/05/04 01:07:55;;;;;;;16.80;12.20;;;9.60;31.30;;;;;;5065195;28;20457;-66
2023/05/04 01:10:27;;;;;;;18.83;11.40;;;9.50;31.40;;;;;;5066896;28;20469;-66
2023/05/04 01:12:58;;;;;;;18.87;11.03;;;9.50;31.50;;;;;;5061684;28;20460;-66
2023/05/04 01:15:26;;;;;;;18.30;13.30;;;9.50;31.60;;;;;;5053772;28;20469;-67
2023/05/04 01:17:54;;;;;;;16.53;11.30;;;9.40;31.60;;;;;;5063476;28;20461;-67
2023/05/04 01:20:21;;;;;;;16.30;12.07;;;9.50;32.00;;;;;;5065889;28;20482;-66
2023/05/04 01:22:49;;;;;;;19.80;12.23;;;9.40;31.90;;;;;;5066561;28;20472;-68
2023/05/04 01:25:16;;;;;;;22.93;13.80;;;9.40;32.00;;;;;;5063228;28;20479;-67
2023/05/04 01:27:50;;;;;;;27.50;15.20;;;9.40;32.00;;;;;;5060405;28;20470;-67
2023/05/04 01:30:21;;;;;;;17.60;12.30;;;9.40;32.20;;;;;;5063847;28;20492;-67
2023/05/04 01:32:49;;;;;;;17.30;12.10;;;9.40;32.20;;;;;;5061882;28;20469;-67
2023/05/04 01:35:16;;;;;;;17.43;11.30;;;9.30;32.30;;;;;;5065106;28;20473;-67
2023/05/04 01:37:43;;;;;;;17.37;12.07;;;9.30;32.50;;;;;;5071466;28;20468;-67
2023/05/04 01:40:12;;;;;;;16.60;11.83;;;9.30;32.60;;;;;;5060337;28;20485;-67
2023/05/04 01:42:38;;;;;;;20.77;12.60;;;9.20;32.60;;;;;;5061920;28;20505;-67
2023/05/04 01:45:06;;;;;;;17.77;12.13;;;9.30;32.70;;;;;;5063804;28;20476;-67
2023/05/04 01:47:33;;;;;;;19.40;12.90;;;9.20;32.60;;;;;;5067284;28;20461;-67
2023/05/04 01:50:00;;;;;;;16.87;12.63;;;9.20;32.70;;;;;;5064195;28;20460;-67
2023/05/04 01:52:26;;;;;;;19.93;13.20;;;9.20;32.70;;;;;;5057176;28;20457;-67
2023/05/04 01:54:53;;;;;;;16.73;13.27;;;9.10;33.10;;;;;;5055969;28;20481;-67
2023/05/04 01:57:21;;;;;;;18.87;12.63;;;9.10;33.10;;;;;;5066058;28;20462;-67
2023/05/04 01:59:48;;;;;;;20.33;14.30;;;9.10;33.10;;;;;;5057602;28;20478;-67
2023/05/04 02:02:15;;;;;;;17.40;12.70;;;9.10;33.30;;;;;;5058169;28;21011;-67
2023/05/04 02:04:41;;;;;;;19.77;13.17;;;9.00;33.30;;;;;;5059800;28;20481;-67
2023/05/04 02:07:08;;;;;;;21.20;13.90;;;9.00;33.40;;;;;;5055696;28;20477;-66
2023/05/04 02:09:35;;;;;;;20.77;13.53;;;9.00;33.50;;;;;;5062324;28;20476;-67
2023/05/04 02:12:02;;;;;;;15.93;11.80;;;9.00;33.50;;;;;;5059311;28;20464;-67
2023/05/04 02:14:30;;;;;;;19.30;13.90;;;9.00;33.40;;;;;;5054059;28;20521;-67
2023/05/04 02:16:57;;;;;;;19.97;12.90;;;8.90;33.40;;;;;;5066576;28;21136;-67
2023/05/04 02:19:23;;;;;;;18.40;13.00;;;8.90;33.60;;;;;;5064350;28;20618;-67
2023/05/04 02:21:51;;;;;;;18.73;12.13;;;8.90;33.50;;;;;;5062358;28;20528;-67
2023/05/04 02:24:17;;;;;;;18.47;13.13;;;8.90;33.50;;;;;;5055304;28;20484;-67
2023/05/04 02:26:44;;;;;;;19.80;14.20;;;8.80;33.50;;;;;;5064898;28;20464;-67
2023/05/04 02:29:11;;;;;;;21.67;13.40;;;8.80;33.70;;;;;;5061961;28;20507;-67
2023/05/04 02:31:39;;;;;;;19.57;13.37;;;8.70;33.80;;;;;;5061478;28;21065;-67
2023/05/04 02:34:06;;;;;;;19.83;13.90;;;8.70;33.90;;;;;;5065130;28;20488;-67
2023/05/04 02:36:32;;;;;;;19.53;13.30;;;8.70;34.20;;;;;;5061170;28;20492;-67
2023/05/04 02:38:59;;;;;;;24.17;14.90;;;8.70;34.50;;;;;;5064551;28;20473;-67
2023/05/04 02:41:26;;;;;;;21.17;13.50;;;8.70;34.70;;;;;;5064550;28;20505;-67
2023/05/04 02:43:53;;;;;;;21.20;13.97;;;8.70;34.80;;;;;;5065579;28;20580;-67
2023/05/04 02:46:19;;;;;;;19.37;13.57;;;8.70;34.80;;;;;;5059317;28;21153;-67
2023/05/04 02:48:47;;;;;;;19.20;13.03;;;8.60;34.90;;;;;;5056124;28;20458;-67
2023/05/04 02:51:14;;;;;;;21.20;13.80;;;8.60;35.20;;;;;;5060138;28;20838;-67
2023/05/04 02:53:41;;;;;;;17.70;13.10;;;8.60;35.20;;;;;;5068005;28;21042;-67
2023/05/04 02:56:08;;;;;;;18.37;13.77;;;8.70;35.30;;;;;;5067005;28;20461;-67
2023/05/04 02:58:34;;;;;;;19.57;12.67;;;8.60;35.10;;;;;;5069373;28;20464;-67
2023/05/04 03:01:01;;;;;;;19.60;13.63;;;8.60;35.00;;;;;;5071608;28;20504;-67
2023/05/04 03:03:28;;;;;;;27.30;13.63;;;8.60;35.00;;;;;;5074213;28;20472;-67
2023/05/04 03:05:56;;;;;;;21.43;13.83;;;8.60;34.90;;;;;;5065288;28;20984;-66
2023/05/04 03:08:23;;;;;;;22.47;13.70;;;8.60;35.00;;;;;;5069400;28;20457;-67
2023/05/04 03:10:49;;;;;;;19.17;13.90;;;8.60;35.00;;;;;;5061566;28;21012;-67
2023/05/04 03:13:16;;;;;;;18.30;13.37;;;8.60;35.00;;;;;;5065121;28;20483;-67
2023/05/04 03:15:43;;;;;;;19.83;14.90;;;8.60;34.70;;;;;;5058427;28;20465;-67
2023/05/04 03:18:09;;;;;;;19.83;14.50;;;8.60;34.60;;;;;;5062484;28;20469;-67
2023/05/04 03:20:36;;;;;;;17.00;12.50;;;8.60;34.40;;;;;;5074909;28;20494;-67
2023/05/04 03:23:04;;;;;;;20.27;14.47;;;8.60;34.30;;;;;;5061640;28;20480;-67
2023/05/04 03:25:31;;;;;;;21.00;14.50;;;8.50;34.20;;;;;;5067796;28;20461;-67
2023/05/04 03:27:58;;;;;;;21.60;14.83;;;8.60;34.10;;;;;;5065834;28;20468;-67
2023/05/04 03:30:24;;;;;;;21.63;14.27;;;8.50;34.10;;;;;;5064525;28;20465;-67
2023/05/04 03:32:51;;;;;;;20.17;13.73;;;8.50;34.10;;;;;;5071858;28;20536;-64
2023/05/04 03:35:18;;;;;;;20.40;15.03;;;8.50;34.00;;;;;;5054732;28;20476;-67
2023/05/04 03:37:45;;;;;;;19.90;14.73;;;8.50;33.80;;;;;;5055131;28;20469;-67
2023/05/04 03:40:14;;;;;;;21.20;14.60;;;8.40;33.90;;;;;;5064394;28;20892;-66
2023/05/04 03:42:40;;;;;;;26.40;14.40;;;8.40;33.90;;;;;;5058554;28;20473;-66
2023/05/04 03:45:08;;;;;;;19.77;15.10;;;8.30;34.00;;;;;;5057776;28;20568;-66
2023/05/04 03:47:35;;;;;;;24.23;16.50;;;8.30;34.20;;;;;;5059555;28;20467;-66
2023/05/04 03:50:01;;;;;;;20.50;14.50;;;8.30;34.10;;;;;;5063084;28;20841;-66
2023/05/04 03:52:28;;;;;;;19.13;14.77;;;8.30;34.10;;;;;;5063199;28;20469;-66
2023/05/04 03:54:55;;;;;;;23.77;14.47;;;8.30;34.30;;;;;;5062516;28;20494;-67
2023/05/04 03:57:23;;;;;;;20.80;15.23;;;8.30;34.30;;;;;;5059770;28;20509;-67
2023/05/04 03:59:50;;;;;;;21.87;14.43;;;8.30;34.20;;;;;;5067500;28;20466;-67
2023/05/04 04:02:16;;;;;;;19.63;15.13;;;8.30;34.20;;;;;;5068162;28;20477;-67
2023/05/04 04:04:43;;;;;;;23.57;14.67;;;8.30;34.00;;;;;;5065263;28;20511;-66
2023/05/04 04:07:10;;;;;;;20.10;14.93;;;8.30;34.00;;;;;;5060463;28;20466;-66
2023/05/04 04:09:37;;;;;;;18.30;14.00;;;8.30;34.00;;;;;;5064865;28;20461;-66
2023/05/04 04:12:03;;;;;;;23.57;15.17;;;8.30;34.10;;;;;;5064662;28;20468;-65
2023/05/04 04:14:31;;;;;;;20.33;15.40;;;8.30;34.10;;;;;;5068304;28;21846;-65
2023/05/04 04:16:58;;;;;;;20.77;15.33;;;8.30;34.20;;;;;;5069105;28;20467;-65
2023/05/04 04:19:25;;;;;;;23.70;15.80;;;8.40;34.10;;;;;;5065366;28;20464;-65
2023/05/04 04:21:52;;;;;;;23.87;15.13;;;8.40;34.00;;;;;;5064752;28;20489;-65
2023/05/04 04:24:19;;;;;;;23.20;14.57;;;8.40;34.10;;;;;;5065357;28;20488;-65
2023/05/04 04:26:45;;;;;;;23.67;16.03;;;8.40;34.10;;;;;;5064948;28;20465;-67
2023/05/04 04:29:12;;;;;;;20.43;14.33;;;8.40;34.10;;;;;;5068197;28;21285;-67
2023/05/04 04:31:40;;;;;;;23.90;15.27;;;8.50;34.20;;;;;;5068970;28;20500;-66
2023/05/04 04:34:07;;;;;;;19.70;16.00;;;8.50;34.20;;;;;;5064322;28;20484;-65
2023/05/04 04:36:34;;;;;;;23.03;18.03;;;8.50;34.30;;;;;;5062580;28;20476;-65
2023/05/04 04:39:00;;;;;;;19.70;15.87;;;8.60;34.20;;;;;;5072778;28;20565;-67
2023/05/04 04:41:27;;;;;;;24.70;14.83;;;8.70;34.00;;;;;;5074012;28;21211;-67
2023/05/04 04:43:54;;;;;;;18.93;13.90;;;8.70;33.90;;;;;;5061419;28;20481;-65
2023/05/04 04:46:21;;;;;;;21.40;15.10;;;8.70;33.80;;;;;;5064672;28;20472;-66
2023/05/04 04:48:51;;;;;;;19.03;13.50;;;8.80;33.80;;;;;;5062220;28;20833;-67
2023/05/04 04:51:18;;;;;;;22.63;14.87;;;8.90;33.80;;;;;;5074336;28;20457;-65
2023/05/04 04:53:44;;;;;;;19.97;13.50;;;9.00;33.00;;;;;;5067986;28;20529;-65
2023/05/04 04:56:11;;;;;;;16.77;12.80;;;9.00;33.00;;;;;;5073448;28;20457;-65
2023/05/04 04:58:38;;;;;;;18.10;13.03;;;9.10;32.70;;;;;;5062203;28;20473;-67
2023/05/04 05:01:06;;;;;;;16.93;13.63;;;9.20;32.40;;;;;;5063895;28;20521;-65
2023/05/04 05:03:33;;;;;;;19.23;13.57;;;9.30;32.30;;;;;;5059481;28;21022;-65
2023/05/04 05:06:02;;;;;;;19.13;13.40;;;9.50;31.50;;;;;;5064065;28;20485;-67
2023/05/04 05:08:29;;;;;;;16.90;12.50;;;9.90;31.10;;;;;;5061884;28;20997;-65
2023/05/04 05:10:56;;;;;;;16.50;12.57;;;10.60;29.60;;;;;;5070396;28;20957;-65
2023/05/04 05:13:23;;;;;;;15.40;11.23;;;11.60;27.10;;;;;;5070985;28;20487;-65
2023/05/04 05:15:49;;;;;;;13.67;10.73;;;12.60;24.10;;;;;;5069159;28;20465;-65
2023/05/04 05:18:16;;;;;;;14.47;11.43;;;13.60;21.20;;;;;;5063891;28;20476;-66
2023/05/04 05:20:43;;;;;;;16.80;11.07;;;14.80;18.50;;;;;;5069192;28;20472;-66
2023/05/04 05:23:11;;;;;;;13.63;9.97;;;16.00;15.80;;;;;;5072197;28;20563;-66
2023/05/04 05:25:37;;;;;;;15.23;10.67;;;17.50;12.80;;;;;;5068350;28;21009;-66
2023/05/04 05:28:04;;;;;;;14.63;10.70;;;18.80;10.00;;;;;;5063774;28;20457;-66
2023/05/04 05:30:31;;;;;;;13.87;9.57;;;20.10;7.20;;;;;;5070755;28;20464;-66
2023/05/04 05:32:58;;;;;;;12.20;8.60;;;21.30;4.90;;;;;;5067100;28;20465;-66
2023/05/04 05:35:24;;;;;;;12.80;10.40;;;22.30;3.00;;;;;;5064497;28;20511;-66
2023/05/04 05:37:51;;;;;;;11.60;9.27;;;22.70;1.80;;;;;;5070779;28;20471;-66
2023/05/04 05:40:21;;;;;;;13.60;9.80;;;23.50;1.00;;;;;;5062216;28;20501;-66
2023/05/04 05:42:47;;;;;;;12.70;9.70;;;24.40;1.00;;;;;;5063822;28;20461;-66
2023/05/04 05:45:14;;;;;;;10.90;9.37;;;24.50;1.00;;;;;;5069178;28;20457;-66
2023/05/04 05:47:41;;;;;;;12.03;9.50;;;25.20;1.00;;;;;;5066075;28;20967;-66
2023/05/04 05:50:08;;;;;;;12.70;9.60;;;25.60;1.00;;;;;;5077749;22;20484;-66
2023/05/04 05:52:35;;;;;;;12.43;9.30;;;26.20;1.00;;;;;;5068192;28;20464;-66
2023/05/04 05:55:02;;;;;;;14.67;10.43;;;26.90;1.00;;;;;;5076887;28;20484;-65
2023/05/04 05:57:30;;;;;;;11.03;9.60;;;27.40;1.00;;;;;;5081008;28;20463;-66
2023/05/04 05:59:57;;;;;;;10.47;9.27;;;27.80;1.00;;;;;;5072682;28;20516;-67
2023/05/04 06:02:24;;;;;;;12.33;9.13;;;28.10;1.00;;;;;;5059164;28;20563;-66
2023/05/04 06:04:50;;;;;;;12.27;9.53;;;28.40;1.00;;;;;;5064633;28;20987;-66
2023/05/04 06:07:18;;;;;;;12.47;9.80;;;28.80;1.00;;;;;;5054485;28;20464;-66
2023/05/04 06:09:45;;;;;;;10.80;9.33;;;29.10;1.00;;;;;;5064052;28;20512;-66
2023/05/04 06:12:13;;;;;;;11.70;9.63;;;29.10;1.00;;;;;;5064687;28;20457;-66
2023/05/04 06:14:42;;;;;;;14.20;10.37;;;29.40;1.00;;;;;;5065002;28;20952;-66
2023/05/04 06:17:09;;;;;;;11.97;9.33;;;29.90;1.00;;;;;;5063405;28;20462;-67
2023/05/04 06:19:37;;;;;;;11.00;9.70;;;30.80;1.00;;;;;;5067326;28;20589;-67
2023/05/04 06:22:04;;;;;;;10.90;9.10;;;31.80;1.00;;;;;;5062435;28;20547;-66
2023/05/04 06:24:31;;;;;;;11.87;10.40;;;32.60;1.00;;;;;;5061117;28;20458;-67
2023/05/04 06:26:58;;;;;;;10.83;9.70;;;33.20;1.00;;;;;;5067363;28;20557;-66
2023/05/04 06:29:25;;;;;;;10.30;9.30;;;33.90;1.00;;;;;;5062638;28;20477;-66
2023/05/04 06:31:53;;;;;;;11.77;10.40;;;34.70;1.00;;;;;;5067349;28;20469;-66
2023/05/04 06:34:20;;;;;;;12.67;11.47;;;35.50;1.00;;;;;;5065711;28;20472;-66
2023/05/04 06:36:47;;;;;;;15.07;12.93;;;36.10;1.00;;;;;;5070285;28;20468;-68
2023/05/04 06:39:14;;;;;;;12.93;11.73;;;36.40;1.00;;;;;;5066759;28;20500;-67
2023/05/04 06:41:41;;;;;;;16.07;12.40;;;36.50;1.00;;;;;;5062822;28;20580;-66
2023/05/04 06:44:08;;;;;;;13.73;12.40;;;36.80;1.00;;;;;;5064454;28;20466;-66
2023/05/04 06:46:36;;;;;;;12.77;11.47;;;36.40;1.00;;;;;;5068895;28;20470;-66
2023/05/04 06:49:04;;;;;;;14.20;12.90;;;36.80;1.00;;;;;;5066924;28;20543;-66
2023/05/04 06:51:30;;;;;;;13.17;11.87;;;37.80;1.00;;;;;;5065562;28;20453;-66
2023/05/04 06:53:58;;;;;;;13.30;12.10;;;38.40;1.00;;;;;;5065662;28;20464;-66
2023/05/04 06:56:25;;;;;;;13.70;12.40;;;38.90;1.00;;;;;;5064539;28;20456;-66
2023/05/04 06:58:52;;;;;;;15.17;13.77;;;39.10;1.00;;;;;;5064633;28;20476;-66
2023/05/04 07:01:19;;;;;;;14.80;13.40;;;39.30;1.00;;;;;;5069263;28;20477;-66
2023/05/04 07:03:45;;;;;;;14.20;12.90;;;39.20;1.00;;;;;;5066595;28;20466;-67
2023/05/04 07:06:13;;;;;;;13.83;12.53;;;39.50;1.00;;;;;;5069268;28;20478;-67
2023/05/04 07:08:40;;;;;;;15.30;13.90;;;39.90;1.00;;;;;;5066649;28;20461;-66
2023/05/04 07:11:09;;;;;;;14.90;13.40;;;40.30;1.00;;;;;;5065537;28;20482;-67
2023/05/04 07:13:36;;;;;;;14.50;13.20;;;41.00;1.00;;;;;;5066547;28;20485;-67
2023/05/04 07:16:06;;;;;;;14.07;12.77;;;41.10;1.00;;;;;;5064994;28;20461;-67
2023/05/04 07:18:32;;;;;;;13.83;12.60;;;41.60;1.00;;;;;;5069285;28;20979;-67
2023/05/04 07:21:00;;;;;;;14.40;13.10;;;42.40;1.00;;;;;;5070830;28;20540;-67
2023/05/04 07:23:28;;;;;;;15.80;14.30;;;43.30;1.00;;;;;;5062107;28;20461;-67
2023/05/04 07:25:54;;;;;;;14.93;13.37;;;43.70;1.00;;;;;;5064719;28;20812;-67
2023/05/04 07:28:21;;;;;;;14.27;12.77;;;44.10;1.00;;;;;;5060042;28;20466;-67
2023/05/04 07:30:48;;;;;;;13.07;11.77;;;44.60;1.00;;;;;;5067776;28;20469;-67
2023/05/04 07:33:14;;;;;;;14.73;13.23;;;45.20;1.00;;;;;;5066502;28;20461;-67
2023/05/04 07:35:41;;;;;;;13.63;12.33;;;45.70;1.00;;;;;;5060810;28;20454;-67
2023/05/04 07:38:08;;;;;;;13.70;12.50;;;46.00;1.00;;;;;;5061471;28;20473;-67
2023/05/04 07:40:36;;;;;;;13.87;12.57;;;46.30;1.00;;;;;;5062955;28;20488;-67
2023/05/04 07:43:03;;;;;;;12.30;11.00;;;46.00;1.00;;;;;;5068452;28;20473;-67
2023/05/04 07:45:29;;;;;;;12.00;10.90;;;46.00;1.00;;;;;;5068264;28;20959;-67
2023/05/04 07:47:56;;;;;;;14.40;13.20;;;46.30;1.00;;;;;;5065421;28;20456;-67
2023/05/04 07:50:23;;;;;;;13.57;12.37;;;46.40;1.00;;;;;;5061800;28;20807;-67
2023/05/04 07:52:51;;;;;;;12.87;11.77;;;46.20;1.00;;;;;;5063964;28;20460;-67
2023/05/04 07:55:17;;;;;;;11.77;10.73;;;46.30;1.00;;;;;;5065787;28;20458;-67
2023/05/04 07:57:45;;;;;;;13.87;12.57;;;46.70;1.00;;;;;;5062236;28;21047;-67
2023/05/04 08:00:13;;;;;;;12.80;11.70;;;47.40;1.00;;;;;;5067874;28;20561;-68
2023/05/04 08:02:40;;;;;;;13.03;11.93;;;47.40;1.00;;;;;;5065537;28;20885;-68
2023/05/04 08:05:08;;;;;;;12.20;11.20;;;47.60;1.00;;;;;;5061183;28;20904;-67
2023/05/04 08:07:34;;;;;;;11.47;10.47;;;47.10;1.00;;;;;;5067261;28;20465;-67
2023/05/04 08:10:01;;;;;;;11.93;10.73;;;46.70;1.00;;;;;;5057607;28;20484;-67
2023/05/04 08:12:28;;;;;;;12.67;11.53;;;47.20;1.00;;;;;;5057994;28;20461;-67
2023/05/04 08:14:56;;;;;;;11.30;10.27;;;47.20;1.00;;;;;;5058070;28;21018;-68
2023/05/04 08:17:22;;;;;;;12.60;11.40;;;46.80;1.00;;;;;;5054790;28;20469;-68
2023/05/04 08:19:49;;;;;;;12.23;11.13;;;46.40;1.00;;;;;;5067821;28;20481;-67
2023/05/04 08:22:16;;;;;;;11.50;10.50;;;46.00;1.00;;;;;;5053677;28;20561;-68
2023/05/04 08:24:45;;;;;;;17.67;10.77;;;46.60;1.00;;;;;;5057589;28;20457;-67
2023/05/04 08:27:13;;;;;;;12.03;10.93;;;47.60;1.00;;;;;;5061433;28;20844;-67
2023/05/04 08:29:40;;;;;;;12.33;11.10;;;47.50;1.00;;;;;;5061307;28;20517;-66
2023/05/04 08:32:08;;;;;;;10.53;9.53;;;47.40;1.00;;;;;;5062147;28;20581;-67
2023/05/04 08:34:35;;;;;;;11.23;10.23;;;47.50;1.00;;;;;;5065349;28;20960;-67
2023/05/04 08:37:02;;;;;;;9.83;8.90;;;47.20;1.00;;;;;;5066024;28;20522;-67
2023/05/04 08:39:29;;;;;;;11.57;10.47;;;47.70;1.00;;;;;;5067010;28;20480;-67
2023/05/04 08:41:56;;;;;;;10.63;9.70;;;47.70;1.00;;;;;;5062527;28;20492;-67
2023/05/04 08:44:23;;;;;;;9.90;8.90;;;47.90;1.00;;;;;;5052372;28;20458;-67
2023/05/04 08:46:52;;;;;;;10.57;9.57;;;47.80;1.00;;;;;;5067153;28;20469;-68
2023/05/04 08:49:20;;;;;;;11.20;10.20;;;47.00;1.00;;;;;;5055673;28;20491;-67
2023/05/04 08:51:49;;;;;;;9.90;8.90;;;46.40;1.00;;;;;;5066993;28;20457;-67
2023/05/04 08:54:16;;;;;;;9.73;8.80;;;46.40;1.00;;;;;;5055858;28;20496;-67
2023/05/04 08:56:44;;;;;;;9.50;8.60;;;46.00;1.00;;;;;;5055140;28;20465;-67
2023/05/04 08:59:18;;;;;;;9.93;8.97;;;45.50;1.00;;;;;;5056280;28;20480;-67
2023/05/04 09:01:46;;;;;;;9.57;8.70;;;45.50;1.00;;;;;;5060494;28;20474;-68
2023/05/04 09:04:12;;;;;;;9.47;8.47;;;44.80;1.00;;;;;;5056350;28;20842;-68
2023/05/04 09:06:41;;;;;;;9.70;8.80;;;43.50;1.00;;;;;;5052036;28;20938;-67
2023/05/04 09:09:09;;;;;;;9.97;9.00;;;42.60;1.00;;;;;;5066248;28;20477;-67
2023/05/04 09:11:36;;;;;;;9.67;8.67;;;41.90;1.00;;;;;;5052718;28;21045;-67
2023/05/04 09:14:03;;;;;;;9.87;8.97;;;41.00;1.00;;;;;;5056837;28;20460;-67
2023/05/04 09:16:36;;;;;;;9.20;8.30;;;40.50;1.00;;;;;;5056413;28;20465;-67
2023/05/04 09:19:04;;;;;;;9.30;8.30;;;40.10;1.00;;;;;;5058656;28;20482;-67
2023/05/04 09:21:32;;;;;;;9.47;8.50;;;39.90;1.00;;;;;;5063314;28;20538;-67
2023/05/04 09:24:00;;;;;;;10.93;9.67;;;39.70;1.00;;;;;;5055148;28;20464;-67
2023/05/04 09:26:28;;;;;;;10.80;9.20;;;40.40;1.00;;;;;;5060549;28;20454;-67
2023/05/04 09:28:55;;;;;;;8.53;7.70;;;41.00;1.00;;;;;;5059087;28;20505;-67
2023/05/04 09:31:22;;;;;;;8.40;7.50;;;41.30;1.00;;;;;;5063125;28;20552;-67
2023/05/04 09:33:49;;;;;;;8.50;7.70;;;41.30;1.00;;;;;;5062568;28;20967;-67
2023/05/04 09:36:19;;;;;;;10.57;9.27;;;41.00;1.00;;;;;;5066001;28;20464;-67
2023/05/04 09:38:46;;;;;;;10.13;7.60;;;41.00;1.00;;;;;;5059957;28;20511;-67
2023/05/04 09:41:14;;;;;;;7.70;6.30;;;41.60;1.00;;;;;;5060887;28;20472;-68
2023/05/04 09:43:43;;;;;;;7.40;6.40;;;41.20;1.00;;;;;;5064952;28;20497;-67
2023/05/04 09:46:16;;;;;;;8.20;7.13;;;40.40;1.00;;;;;;5066329;28;20458;-67
2023/05/04 09:48:51;;;;;;;8.37;7.50;;;39.60;1.00;;;;;;5051769;28;20552;-66
2023/05/04 09:51:20;;;;;;;9.80;7.80;;;40.50;1.00;;;;;;5061635;28;20461;-67
2023/05/04 09:53:48;;;;;;;7.30;6.60;;;41.50;1.00;;;;;;5067881;28;20453;-67
2023/05/04 09:56:26;;;;;;;8.63;6.53;;;42.00;1.00;;;;;;5067339;28;20591;-67
2023/05/04 09:58:57;;;;;;;7.93;6.40;;;42.40;1.00;;;;;;5065703;28;20556;-66
2023/05/04 10:01:25;;;;;;;7.13;6.07;;;42.40;1.00;;;;;;5056828;28;20515;-67
2023/05/04 10:03:53;;;;;;;7.13;6.13;;;42.90;1.00;;;;;;5064289;28;20481;-66
2023/05/04 10:06:21;;;;;;;6.97;6.27;;;42.60;1.00;;;;;;5069927;28;20469;-66
2023/05/04 10:08:49;;;;;;;7.13;6.33;;;42.00;1.00;;;;;;5067423;28;20476;-67
2023/05/04 10:11:19;;;;;;;8.00;7.03;;;40.90;1.00;;;;;;5065321;28;20959;-67
2023/05/04 10:13:46;;;;;;;7.33;6.43;;;38.90;1.00;;;;;;5066746;28;20509;-66
2023/05/04 10:16:24;;;;;;;7.73;6.30;;;36.80;1.00;;;;;;5069057;28;20452;-66
2023/05/04 10:19:03;;;;;;;9.90;6.87;;;34.10;1.00;;;;;;5064127;28;20560;-66
2023/05/04 10:21:41;;;;;;;8.20;6.50;;;31.70;1.00;;;;;;5070812;28;20453;-66
2023/05/04 10:24:28;;;;;;;7.77;6.80;;;30.30;1.00;;;;;;5069817;28;20556;-66
2023/05/04 10:27:04;;;;;;;8.50;6.70;;;29.20;1.00;;;;;;5071005;28;20463;-66
2023/05/04 10:29:33;;;;;;;10.00;7.53;;;28.10;1.00;;;;;;5064876;28;21227;-66
2023/05/04 10:32:00;;;;;;;8.10;6.43;;;26.90;1.00;;;;;;5062608;28;20470;-67
2023/05/04 10:34:29;;;;;;;7.83;5.77;;;26.20;1.00;;;;;;5066629;28;20466;-67
2023/05/04 10:36:56;;;;;;;9.90;7.80;;;25.80;1.00;;;;;;5063525;28;20454;-65
2023/05/04 10:39:25;;;;;;;9.50;7.17;;;25.40;1.00;;;;;;5067995;28;21119;-65
2023/05/04 10:42:01;;;;;;;8.67;7.50;;;25.00;1.00;;;;;;5070044;28;20457;-67
2023/05/04 10:44:29;;;;;;;9.47;8.13;;;24.50;1.00;;;;;;5060386;28;20485;-66
2023/05/04 10:47:01;;;;;;;11.13;7.47;;;24.20;1.00;;;;;;5066377;28;20461;-67
2023/05/04 10:49:28;;;;;;;9.67;7.37;;;23.80;1.00;;;;;;5062331;28;20909;-67
2023/05/04 10:52:14;;;;;;;9.77;6.60;;;23.60;1.00;;;;;;5057984;28;21172;-67
2023/05/04 10:54:42;;;;;;;10.07;7.57;;;23.30;1.00;;;;;;5062177;28;20489;-67
2023/05/04 10:57:12;;;;;;;8.43;6.80;;;22.90;1.00;;;;;;5066459;28;20466;-67
2023/05/04 10:59:40;;;;;;;10.47;7.70;;;22.70;1.00;;;;;;5072637;22;20492;-67
2023/05/04 11:02:07;;;;;;;9.20;7.97;;;22.40;1.00;;;;;;5067430;28;20526;-68
2023/05/04 11:04:34;;;;;;;8.90;6.53;;;22.30;1.00;;;;;;5069810;28;20489;-69
2023/05/04 11:07:03;;;;;;;9.60;7.80;;;22.20;1.00;;;;;;5073011;28;20461;-68
2023/05/04 11:09:36;;;;;;;9.03;7.50;;;22.20;1.00;;;;;;5067375;28;20551;-68
2023/05/04 11:12:03;;;;;;;8.57;6.60;;;22.10;1.00;;;;;;5067643;28;20468;-69
2023/05/04 11:14:36;;;;;;;11.13;8.00;;;21.80;1.00;;;;;;5059667;28;20479;-68
2023/05/04 11:17:07;;;;;;;10.27;7.00;;;21.70;1.00;;;;;;5065522;28;20453;-68
2023/05/04 11:19:34;;;;;;;10.70;6.53;;;21.60;1.00;;;;;;5067733;28;20485;-67
2023/05/04 11:22:01;;;;;;;9.00;6.83;;;21.50;1.00;;;;;;5066695;28;20515;-68
2023/05/04 11:24:39;;;;;;;8.67;6.97;;;21.50;1.00;;;;;;5068292;28;20950;-68
2023/05/04 11:27:06;;;;;;;9.53;6.43;;;21.50;1.00;;;;;;5068542;28;20461;-67
2023/05/04 11:29:34;;;;;;;8.70;7.50;;;21.50;1.00;;;;;;5069114;28;20488;-66
2023/05/04 11:32:01;;;;;;;9.67;7.57;;;21.40;1.00;;;;;;5065911;28;20480;-66
2023/05/04 11:34:27;;;;;;;10.37;6.60;;;21.40;1.00;;;;;;5069055;28;20453;-66
2023/05/04 11:36:54;;;;;;;8.67;5.80;;;21.30;1.00;;;;;;5068653;28;20461;-66
2023/05/04 11:39:21;;;;;;;8.50;6.20;;;21.30;1.00;;;;;;5068224;28;20481;-66
2023/05/04 11:41:48;;;;;;;8.43;6.70;;;21.40;1.00;;;;;;5066376;28;20457;-66
2023/05/04 11:44:16;;;;;;;9.40;6.67;;;21.40;1.00;;;;;;5067610;28;20848;-66
2023/05/04 11:46:46;;;;;;;10.03;7.73;;;21.50;1.00;;;;;;5066575;28;20495;-66
2023/05/04 11:49:13;;;;;;;8.13;6.43;;;21.60;1.00;;;;;;5067239;28;20493;-66
2023/05/04 11:51:40;;;;;;;9.60;6.77;;;21.50;1.00;;;;;;5063588;28;20464;-66
2023/05/04 11:54:06;;;;;;;9.03;6.23;;;21.50;1.00;;;;;;5063159;28;20819;-68
2023/05/04 11:56:41;;;;;;;12.20;8.00;;;21.50;1.00;;;;;;5060542;28;20541;-66
2023/05/04 11:59:09;;;;;;;9.70;7.47;;;21.50;1.00;;;;;;5063435;28;20895;-68
2023/05/04 12:01:36;;;;;;;8.80;7.00;;;21.30;1.00;;;;;;5063646;28;20477;-67
2023/05/04 12:04:05;;;;;;;8.97;6.97;;;21.40;1.00;;;;;;5065045;28;20481;-66
2023/05/04 12:06:32;;;;;;;9.47;6.20;;;21.50;1.00;;;;;;5061482;28;20461;-67
2023/05/04 12:09:04;;;;;;;11.60;7.53;;;21.40;1.00;;;;;;5064894;28;20524;-66
2023/05/04 12:11:31;;;;;;;9.07;6.37;;;21.40;1.00;;;;;;5061700;28;20511;-66
2023/05/04 12:14:06;;;;;;;11.47;7.20;;;21.40;1.00;;;;;;5056302;28;20453;-66
2023/05/04 12:16:33;;;;;;;8.63;6.83;;;21.40;1.00;;;;;;5065051;28;20488;-66
2023/05/04 12:19:07;;;;;;;9.53;7.03;;;21.50;1.00;;;;;;5058190;28;20509;-66
2023/05/04 12:21:34;;;;;;;10.67;7.53;;;21.60;1.00;;;;;;5064602;28;20895;-68
2023/05/04 12:24:02;;;;;;;9.80;6.47;;;21.60;1.00;;;;;;5062275;28;20485;-68
2023/05/04 12:26:29;;;;;;;9.50;6.40;;;21.60;1.00;;;;;;5067806;28;20469;-67
2023/05/04 12:28:56;;;;;;;9.50;7.40;;;21.70;1.00;;;;;;5067613;28;20477;-68
2023/05/04 12:31:22;;;;;;;9.73;7.33;;;21.60;1.00;;;;;;5065619;28;20522;-68
2023/05/04 12:33:50;;;;;;;9.10;7.13;;;21.60;1.00;;;;;;5066127;28;20532;-68
2023/05/04 12:36:18;;;;;;;9.87;7.77;;;21.60;1.00;;;;;;5064639;28;20467;-68
2023/05/04 12:38:45;;;;;;;13.70;8.63;;;21.90;1.00;;;;;;5067093;28;20505;-68
2023/05/04 12:41:12;;;;;;;9.83;7.43;;;21.90;1.00;;;;;;5068743;28;20544;-68
2023/05/04 12:43:39;;;;;;;13.70;7.33;;;22.00;1.00;;;;;;5065567;28;20919;-68
2023/05/04 12:46:06;;;;;;;7.97;5.73;;;22.20;1.00;;;;;;5066075;28;20457;-68